Time;durP1;ratioP1;P1;durP2;ratioP2;P2;SDS_P1;SDS_P2;PMS_P1;PMS_P2;Temp;Humidity;BMP_temperature;BMP_pressure;BME280_temperature;BME280_humidity;BME280_pressure;Samples;Min_cycle;Max_cycle;Signal;HPM_P1;HPM_P2
2023/02/20 00:00:36;;;;;;;2.07;1.60;;;;;;;10.41;62.03;96602.47;5031704;28;20207;-84
2023/02/20 00:03:03;;;;;;;2.10;1.80;;;;;;;10.30;62.36;96596.59;5045391;28;20229;-84
2023/02/20 00:05:29;;;;;;;2.57;1.43;;;;;;;10.24;62.82;96597.19;5034522;28;20198;-84
2023/02/20 00:07:56;;;;;;;3.30;1.90;;;;;;;10.28;62.54;96606.25;5049254;28;20615;-84
2023/02/20 00:10:23;;;;;;;3.53;1.70;;;;;;;10.23;62.41;96608.44;5043624;28;20228;-84
2023/02/20 00:12:51;;;;;;;4.77;1.83;;;;;;;10.22;62.66;96611.16;5048432;28;20216;-84
2023/02/20 00:15:19;;;;;;;2.50;1.90;;;;;;;10.19;62.44;96608.91;5049623;28;20197;-84
2023/02/20 00:17:47;;;;;;;3.07;1.83;;;;;;;10.17;62.52;96615.94;5029215;28;20317;-84
2023/02/20 00:20:14;;;;;;;1.90;1.70;;;;;;;10.20;62.61;96618.25;5028840;28;20240;-84
2023/02/20 00:22:41;;;;;;;2.53;1.90;;;;;;;10.16;62.90;96611.75;5029280;28;20702;-84
2023/02/20 00:25:07;;;;;;;4.60;1.97;;;;;;;10.17;62.50;96616.75;5029124;28;20205;-84
2023/02/20 00:27:34;;;;;;;4.03;2.00;;;;;;;10.13;62.83;96606.91;5048101;28;20370;-84
2023/02/20 00:30:01;;;;;;;2.30;1.97;;;;;;;10.19;62.66;96608.91;5050021;28;20201;-84
2023/02/20 00:32:29;;;;;;;1.83;1.70;;;;;;;10.15;62.71;96613.50;5032386;28;20268;-84
2023/02/20 00:34:55;;;;;;;4.37;1.90;;;;;;;10.15;62.93;96610.94;5031161;28;20320;-84
2023/02/20 00:37:22;;;;;;;2.40;1.80;;;;;;;10.13;62.62;96619.75;5030102;28;20226;-84
2023/02/20 00:39:48;;;;;;;3.73;2.13;;;;;;;10.06;62.64;96606.66;5034322;28;20200;-84
2023/02/20 00:42:15;;;;;;;2.50;1.90;;;;;;;10.05;62.92;96610.19;5049224;28;20726;-84
2023/02/20 00:44:41;;;;;;;2.53;1.90;;;;;;;10.07;62.87;96603.13;5045378;28;20207;-84
2023/02/20 00:47:09;;;;;;;3.13;2.03;;;;;;;10.05;62.81;96611.00;5030488;28;20198;-84
2023/02/20 00:49:35;;;;;;;3.83;1.87;;;;;;;9.94;62.85;96611.25;5029264;28;20210;-84
2023/02/20 00:52:02;;;;;;;3.20;2.00;;;;;;;9.97;63.08;96602.44;5045909;28;20221;-84
2023/02/20 00:54:28;;;;;;;2.70;1.73;;;;;;;10.02;63.25;96600.19;5046333;28;20209;-84
2023/02/20 00:56:54;;;;;;;3.00;2.00;;;;;;;10.07;62.95;96610.06;5045973;28;20221;-84
2023/02/20 00:59:21;;;;;;;2.33;1.90;;;;;;;10.01;62.97;96607.09;5049682;28;20493;-84
2023/02/20 01:01:47;;;;;;;2.63;1.80;;;;;;;10.01;63.20;96607.09;5034127;28;20844;-84
2023/02/20 01:04:15;;;;;;;2.60;1.93;;;;;;;9.94;63.49;96602.72;5048370;28;20574;-84
2023/02/20 01:06:41;;;;;;;2.03;1.50;;;;;;;9.85;63.61;96601.81;5047961;28;20197;-84
2023/02/20 01:09:08;;;;;;;1.70;1.60;;;;;;;9.91;63.29;96608.97;5041674;28;20195;-84
2023/02/20 01:11:34;;;;;;;4.07;2.00;;;;;;;9.99;63.34;96600.50;5041450;28;20218;-84
2023/02/20 01:14:01;;;;;;;2.07;1.50;;;;;;;10.00;63.48;96602.13;5048442;28;20209;-84
2023/02/20 01:16:27;;;;;;;2.13;1.73;;;;;;;9.94;63.32;96605.28;5035935;28;20198;-84
2023/02/20 01:18:54;;;;;;;1.90;1.67;;;;;;;9.91;63.57;96615.88;5028088;28;20604;-84
2023/02/20 01:21:21;;;;;;;2.13;1.70;;;;;;;9.93;63.84;96616.53;5038355;28;20267;-83
2023/02/20 01:23:48;;;;;;;2.30;1.70;;;;;;;9.87;64.15;96612.78;5048110;28;20256;-84
2023/02/20 01:26:14;;;;;;;1.73;1.50;;;;;;;9.92;63.83;96607.19;5037440;28;20205;-84
2023/02/20 01:28:43;;;;;;;2.33;1.77;;;;;;;9.94;64.11;96600.94;5028043;28;20198;-84
2023/02/20 01:31:10;;;;;;;2.33;1.63;;;;;;;9.90;64.14;96596.25;5036339;28;20221;-84
2023/02/20 01:33:36;;;;;;;2.93;2.20;;;;;;;9.79;64.26;96599.84;5041897;28;20210;-84
2023/02/20 01:36:03;;;;;;;2.40;1.57;;;;;;;9.80;64.70;96598.09;5027952;28;20206;-84
2023/02/20 01:38:30;;;;;;;1.73;1.63;;;;;;;9.76;64.75;96604.47;5031448;28;20232;-84
2023/02/20 01:40:57;;;;;;;2.37;1.60;;;;;;;9.76;65.12;96599.31;5047439;28;20726;-84
2023/02/20 01:43:23;;;;;;;2.67;1.50;;;;;;;9.68;65.67;96592.34;5037373;28;20252;-84
2023/02/20 01:45:50;;;;;;;2.90;1.70;;;;;;;9.65;65.58;96596.00;5034029;28;20202;-84
2023/02/20 01:48:20;;;;;;;2.43;1.60;;;;;;;9.51;66.45;96599.06;5045192;28;20197;-84
2023/02/20 01:50:48;;;;;;;1.93;1.67;;;;;;;9.56;66.13;96604.59;5027589;28;20233;-84
2023/02/20 01:53:18;;;;;;;2.03;1.50;;;;;;;9.69;65.85;96611.94;5028109;28;20202;-84
2023/02/20 01:55:51;;;;;;;2.27;1.60;;;;;;;9.75;66.04;96603.66;5030974;28;20199;-83
2023/02/20 01:58:22;;;;;;;2.50;1.70;;;;;;;9.72;66.10;96588.53;5033266;28;20742;-83
2023/02/20 02:00:49;;;;;;;3.07;1.80;;;;;;;9.75;65.84;96577.94;5049762;28;20618;-84
2023/02/20 02:03:19;;;;;;;2.70;1.93;;;;;;;9.72;65.93;96580.81;5048914;28;20227;-84
2023/02/20 02:05:48;;;;;;;1.90;1.70;;;;;;;9.70;65.98;96580.13;5036706;28;20233;-84
2023/02/20 02:08:18;;;;;;;1.70;1.57;;;;;;;9.81;65.67;96582.50;5053149;28;20266;-84
2023/02/20 02:10:52;;;;;;;3.50;2.00;;;;;;;9.79;65.83;96578.47;5044290;28;20774;-84
2023/02/20 02:13:19;;;;;;;2.63;1.90;;;;;;;9.67;65.79;96578.66;5034019;28;20206;-84
2023/02/20 02:15:45;;;;;;;3.73;2.00;;;;;;;9.67;65.88;96576.09;5042218;28;20197;-84
2023/02/20 02:18:33;;;;;;;2.53;2.20;;;;;;;9.70;65.91;96565.53;5054297;28;20217;-84
2023/02/20 02:21:29;;;;;;;2.00;1.80;;;;;;;9.69;66.12;96579.34;5046531;28;20229;-84
2023/02/20 02:24:35;;;;;;;2.57;1.90;;;;;;;9.70;65.70;96578.38;5054232;28;20560;-84
2023/02/20 02:27:40;;;;;;;1.93;1.83;;;;;;;9.60;66.49;96580.22;5034341;28;20224;-84
2023/02/20 02:30:44;;;;;;;6.83;4.90;;;;;;;9.67;66.18;96580.44;5040695;28;20674;-84
2023/02/20 02:33:41;;;;;;;3.70;2.27;;;;;;;9.66;66.13;96576.25;5052963;28;20213;-84
2023/02/20 02:36:41;;;;;;;3.13;2.10;;;;;;;9.61;66.57;96581.03;5032594;28;20209;-84
2023/02/20 02:39:17;;;;;;;3.50;1.77;;;;;;;9.66;66.03;96571.91;5033941;28;20226;-84
2023/02/20 02:41:49;;;;;;;2.27;1.97;;;;;;;9.70;66.23;96559.56;5053038;28;20248;-84
2023/02/20 02:44:19;;;;;;;3.00;1.87;;;;;;;9.58;66.42;96563.31;5035345;28;20253;-84
2023/02/20 02:46:55;;;;;;;2.27;2.07;;;;;;;9.61;66.48;96560.47;5047972;28;20264;-84
2023/02/20 02:49:28;;;;;;;3.20;2.00;;;;;;;9.53;66.56;96563.75;5052499;28;20251;-83
2023/02/20 02:51:57;;;;;;;3.17;2.07;;;;;;;9.56;66.55;96566.03;5036216;28;20249;-84
2023/02/20 02:54:26;;;;;;;5.73;2.30;;;;;;;9.60;66.53;96564.78;5033870;28;20229;-84
2023/02/20 02:57:13;;;;;;;2.60;2.30;;;;;;;9.61;66.41;96563.84;5051461;28;20881;-84
2023/02/20 02:59:43;;;;;;;3.63;2.07;;;;;;;9.59;66.36;96568.31;5047286;28;20205;-84
2023/02/20 03:02:14;;;;;;;2.73;2.00;;;;;;;9.52;67.21;96561.31;5033972;28;20526;-83
2023/02/20 03:04:42;;;;;;;2.30;1.90;;;;;;;9.51;66.81;96563.09;5033736;28;20202;-83
2023/02/20 03:07:14;;;;;;;4.37;2.03;;;;;;;9.63;66.37;96563.66;5051451;28;20202;-84
2023/02/20 03:09:45;;;;;;;3.67;2.10;;;;;;;9.60;66.94;96562.22;5040425;28;20213;-85
2023/02/20 03:12:13;;;;;;;2.47;2.10;;;;;;;9.53;67.13;96568.09;5051348;28;20229;-84
2023/02/20 03:17:32;;;;;;;2.20;1.97;;;;;;;9.69;66.40;96581.09;5037658;28;20224;-84
2023/02/20 03:20:02;;;;;;;2.97;1.90;;;;;;;9.68;66.73;96584.63;5048779;28;20194;-84
2023/02/20 03:22:34;;;;;;;2.70;2.07;;;;;;;9.74;66.44;96573.75;5031770;28;20374;-84
2023/02/20 03:25:05;;;;;;;2.47;2.13;;;;;;;9.67;66.65;96575.28;5035731;28;20201;-83
2023/02/20 03:27:39;;;;;;;2.40;2.07;;;;;;;9.51;67.05;96563.09;5052711;28;20361;-84
2023/02/20 03:30:10;;;;;;;2.80;2.10;;;;;;;9.50;67.13;96564.03;5034940;28;20706;-84
2023/02/20 03:43:45;;;;;;;2.97;2.10;;;;;;;9.22;68.15;96565.03;5045677;28;20849;-84
2023/02/20 03:46:18;;;;;;;3.07;2.10;;;;;;;9.25;67.96;96557.81;5031800;28;20201;-83
2023/02/20 03:48:48;;;;;;;2.60;1.90;;;;;;;9.33;67.87;96564.81;5037124;28;20221;-83
2023/02/20 03:51:15;;;;;;;1.90;1.73;;;;;;;9.41;67.53;96564.94;5051316;28;20221;-84
2023/02/20 03:53:45;;;;;;;2.47;2.07;;;;;;;9.43;67.24;96570.69;5049739;28;20205;-84
2023/02/20 03:56:16;;;;;;;3.10;2.10;;;;;;;9.39;67.18;96564.25;5050551;28;20209;-83
2023/02/20 03:58:49;;;;;;;3.23;2.17;;;;;;;9.40;67.09;96562.50;5045647;28;20206;-83
2023/02/20 04:01:17;;;;;;;3.53;2.30;;;;;;;9.41;66.90;96575.19;5031098;28;20226;-84
2023/02/20 04:03:47;;;;;;;3.37;2.10;;;;;;;9.48;66.68;96575.41;5036842;28;20202;-84
2023/02/20 04:06:15;;;;;;;3.93;2.20;;;;;;;9.46;66.78;96564.47;5051822;28;20625;-84
2023/02/20 04:08:49;;;;;;;2.10;1.90;;;;;;;9.45;66.79;96562.84;5050738;28;20202;-84
2023/02/20 04:11:19;;;;;;;3.33;2.30;;;;;;;9.48;66.99;96565.94;5050863;28;20221;-84
2023/02/20 04:13:48;;;;;;;3.03;2.57;;;;;;;9.48;66.69;96575.41;5049996;28;20220;-83
2023/02/20 04:16:14;;;;;;;4.40;2.20;;;;;;;9.52;66.55;96574.19;5050640;28;20197;-83
2023/02/20 04:18:41;;;;;;;2.30;2.10;;;;;;;9.55;66.28;96573.88;5047462;28;20217;-84
2023/02/20 04:21:16;;;;;;;3.07;2.23;;;;;;;9.56;66.09;96571.19;5030853;28;20283;-84
2023/02/20 04:23:47;;;;;;;2.20;2.00;;;;;;;9.40;66.78;96576.16;5038549;28;20204;-84
2023/02/20 04:26:18;;;;;;;3.50;2.33;;;;;;;9.39;67.04;96574.53;5050596;28;20607;-84
2023/02/20 04:28:45;;;;;;;3.77;2.10;;;;;;;9.45;66.46;96573.94;5049386;28;20214;-83
2023/02/20 04:31:13;;;;;;;2.93;2.07;;;;;;;9.50;66.62;96569.19;5050985;28;20225;-83
2023/02/20 04:33:39;;;;;;;3.07;2.07;;;;;;;9.41;66.30;96575.19;5044186;28;20233;-84
2023/02/20 04:36:06;;;;;;;2.67;2.10;;;;;;;9.44;66.13;96571.50;5030922;28;20285;-83
2023/02/20 04:38:33;;;;;;;2.90;2.50;;;;;;;9.48;66.06;96565.13;5035075;28;20224;-84
2023/02/20 04:41:01;;;;;;;2.50;2.10;;;;;;;9.47;66.26;96564.31;5050086;28;20287;-84
2023/02/20 04:43:27;;;;;;;3.57;2.27;;;;;;;9.44;66.43;96563.81;5034948;28;20194;-84
2023/02/20 04:45:53;;;;;;;3.27;2.30;;;;;;;9.45;66.03;96562.84;5038103;28;20193;-84
2023/02/20 04:48:20;;;;;;;3.53;2.30;;;;;;;9.34;66.55;96576.72;5049484;28;20193;-84
2023/02/20 04:50:47;;;;;;;3.40;2.33;;;;;;;9.25;66.72;96575.81;5049186;28;20248;-84
2023/02/20 04:53:13;;;;;;;2.43;2.10;;;;;;;9.23;67.17;96569.22;5045666;28;20286;-84
2023/02/20 04:55:40;;;;;;;3.47;2.63;;;;;;;9.27;66.56;96563.63;5042669;28;20202;-83
2023/02/20 04:58:07;;;;;;;3.30;2.27;;;;;;;9.22;66.94;96571.00;5050287;28;20267;-84
2023/02/20 05:00:34;;;;;;;3.63;2.33;;;;;;;9.22;67.06;96563.28;5045302;28;20197;-84
2023/02/20 05:03:00;;;;;;;2.87;2.30;;;;;;;9.17;66.94;96562.09;5030328;28;20411;-84
2023/02/20 05:05:29;;;;;;;3.00;1.97;;;;;;;9.19;67.00;96562.75;5035176;28;20190;-84
2023/02/20 05:07:56;;;;;;;3.47;2.33;;;;;;;9.15;67.27;96561.41;5029700;28;20202;-84
2023/02/20 05:10:24;;;;;;;3.40;2.33;;;;;;;9.12;67.04;96559.13;5047673;28;20232;-84
2023/02/20 05:12:51;;;;;;;2.63;2.10;;;;;;;9.10;67.36;96548.19;5030562;28;20226;-84
2023/02/20 05:15:19;;;;;;;2.20;2.00;;;;;;;8.96;67.80;96558.00;5031836;28;20198;-83
2023/02/20 05:17:46;;;;;;;6.03;2.40;;;;;;;8.96;68.06;96549.47;5031272;28;20198;-84
2023/02/20 05:20:14;;;;;;;3.00;2.20;;;;;;;9.04;68.05;96556.47;5031126;28;20213;-83
2023/02/20 05:22:39;;;;;;;3.17;2.50;;;;;;;9.08;67.21;96562.94;5030407;28;20217;-84
2023/02/20 05:25:07;;;;;;;3.17;1.90;;;;;;;9.07;67.45;96571.59;5030112;28;20205;-84
2023/02/20 05:27:33;;;;;;;3.23;2.30;;;;;;;9.10;67.08;96571.31;5029731;28;20193;-84
2023/02/20 05:30:01;;;;;;;4.07;2.00;;;;;;;9.10;67.11;96576.44;5035642;28;20202;-85
2023/02/20 05:32:30;;;;;;;4.33;2.30;;;;;;;9.03;67.12;96585.69;5032696;28;20229;-84
2023/02/20 05:34:57;;;;;;;4.27;2.23;;;;;;;9.07;66.95;96582.66;5044450;28;20197;-84
2023/02/20 05:37:25;;;;;;;3.27;2.40;;;;;;;9.04;68.24;96590.69;5045151;28;20194;-85
2023/02/20 05:39:51;;;;;;;3.17;2.30;;;;;;;9.11;66.92;96593.47;5044375;28;20740;-84
2023/02/20 05:42:20;;;;;;;2.73;2.20;;;;;;;9.11;66.91;96584.00;5057762;28;20768;-85
2023/02/20 05:44:48;;;;;;;2.60;2.40;;;;;;;9.13;66.40;96586.44;5062708;28;20199;-85
2023/02/20 05:47:14;;;;;;;2.50;2.30;;;;;;;9.03;66.99;96585.69;5065626;28;20201;-84
2023/02/20 05:49:42;;;;;;;3.33;2.27;;;;;;;8.99;67.06;96580.03;5069800;28;20489;-84
2023/02/20 05:52:11;;;;;;;4.23;2.57;;;;;;;8.99;67.18;96588.53;5066532;28;20211;-84
2023/02/20 05:54:37;;;;;;;3.73;2.27;;;;;;;8.94;67.38;96583.00;5054022;28;20269;-84
2023/02/20 05:57:07;;;;;;;4.23;2.60;;;;;;;8.92;67.23;96582.34;5061398;28;20197;-84
2023/02/20 05:59:34;;;;;;;3.50;2.20;;;;;;;8.91;67.38;96587.59;5064813;28;20251;-85
2023/02/20 06:02:01;;;;;;;3.63;2.30;;;;;;;8.90;67.57;96586.81;5067684;28;20224;-84
2023/02/20 06:04:27;;;;;;;2.40;2.13;;;;;;;8.95;67.32;96591.53;5069747;28;20200;-84
2023/02/20 06:06:55;;;;;;;4.27;2.83;;;;;;;8.99;67.18;96593.66;5049529;28;20228;-84
2023/02/20 06:09:22;;;;;;;3.37;2.53;;;;;;;8.99;66.96;96600.56;5041243;28;20198;-84
2023/02/20 06:11:49;;;;;;;4.33;2.77;;;;;;;8.86;67.36;96606.00;5032349;28;20218;-84
2023/02/20 06:14:17;;;;;;;4.80;2.63;;;;;;;8.91;67.35;96610.72;5043474;28;20194;-84
2023/02/20 06:16:44;;;;;;;2.50;2.30;;;;;;;8.94;67.11;96608.69;5051202;28;20202;-84
2023/02/20 06:19:10;;;;;;;2.53;2.30;;;;;;;8.94;67.14;96608.69;5040461;28;20217;-85
2023/02/20 06:21:39;;;;;;;3.63;3.00;;;;;;;8.88;67.35;96614.38;5052103;28;20218;-84
2023/02/20 06:24:07;;;;;;;2.73;2.43;;;;;;;8.89;67.38;96615.19;5050241;28;20674;-85
2023/02/20 06:26:39;;;;;;;5.33;2.93;;;;;;;8.89;67.39;96613.44;5037595;28;20202;-85
2023/02/20 06:29:05;;;;;;;3.80;2.50;;;;;;;8.90;67.39;96617.63;5036568;28;20962;-84
2023/02/20 06:31:32;;;;;;;5.83;3.10;;;;;;;8.92;68.03;96625.19;5044189;28;20229;-84
2023/02/20 06:33:58;;;;;;;5.60;3.07;;;;;;;8.89;67.60;96620.31;5044954;28;20213;-84
2023/02/20 06:36:27;;;;;;;5.17;2.90;;;;;;;8.83;67.42;96619.16;5045662;28;20772;-84
2023/02/20 06:38:53;;;;;;;3.87;2.50;;;;;;;8.82;67.38;96612.38;5044342;28;20221;-84
2023/02/20 06:41:21;;;;;;;3.40;2.80;;;;;;;8.82;67.15;96614.16;5043393;28;20225;-82
2023/02/20 06:43:48;;;;;;;14.47;10.63;;;;;;;8.88;67.17;96616.94;5043610;28;20204;-82
2023/02/20 06:46:14;;;;;;;5.30;3.43;;;;;;;8.90;66.86;96624.50;5044450;28;20271;-82
2023/02/20 06:48:45;;;;;;;4.70;2.67;;;;;;;8.93;67.02;96619.09;5043231;28;20567;-81
2023/02/20 06:51:11;;;;;;;4.20;2.43;;;;;;;9.17;66.11;96624.56;5043396;28;20236;-82
2023/02/20 06:53:41;;;;;;;5.67;2.70;;;;;;;9.42;66.59;96609.44;5055909;28;20205;-82
2023/02/20 06:56:09;;;;;;;3.67;2.57;;;;;;;9.38;64.85;96615.81;5054711;28;20212;-82
2023/02/20 06:58:36;;;;;;;3.27;2.40;;;;;;;9.24;65.20;96625.59;5032971;28;20218;-83
2023/02/20 07:01:03;;;;;;;4.00;2.60;;;;;;;9.16;65.49;96624.69;5032782;28;20233;-83
2023/02/20 07:03:32;;;;;;;3.20;2.37;;;;;;;9.04;65.85;96625.84;5031965;28;20198;-81
2023/02/20 07:05:59;;;;;;;5.30;2.73;;;;;;;9.03;66.05;96619.88;5040532;28;20834;-81
2023/02/20 07:08:25;;;;;;;3.13;2.43;;;;;;;9.05;66.02;96630.81;5048792;28;20256;-82
2023/02/20 07:10:54;;;;;;;3.90;2.47;;;;;;;9.02;65.83;96633.69;5050630;28;20216;-82
2023/02/20 07:13:20;;;;;;;9.20;6.00;;;;;;;9.00;65.93;96625.31;5050595;28;20208;-82
2023/02/20 07:15:48;;;;;;;4.03;3.33;;;;;;;9.05;65.92;96630.00;5049565;28;20209;-82
2023/02/20 07:18:16;;;;;;;5.13;2.80;;;;;;;9.05;65.60;96625.66;5033020;28;20194;-81
2023/02/20 07:20:42;;;;;;;3.70;2.30;;;;;;;9.16;65.17;96632.41;5032724;28;20225;-81
2023/02/20 07:23:09;;;;;;;5.40;2.70;;;;;;;9.68;64.69;96630.91;5050804;28;20517;-81
2023/02/20 07:25:35;;;;;;;4.33;2.47;;;;;;;9.73;63.71;96628.72;5042008;28;20210;-81
2023/02/20 07:28:02;;;;;;;3.57;2.40;;;;;;;9.62;63.42;96627.16;5055435;28;20241;-83
2023/02/20 07:30:28;;;;;;;3.50;2.50;;;;;;;9.50;64.13;96641.16;5030643;28;20727;-82
2023/02/20 07:32:56;;;;;;;4.63;2.43;;;;;;;9.41;64.08;96634.31;5040060;28;20217;-82
2023/02/20 07:35:22;;;;;;;17.77;13.93;;;;;;;9.37;64.76;96637.31;5033940;28;20229;-81
2023/02/20 07:37:49;;;;;;;5.97;4.40;;;;;;;9.35;64.87;96645.16;5050838;28;20204;-82
2023/02/20 07:40:15;;;;;;;5.73;2.67;;;;;;;9.39;64.82;96643.94;5051004;28;20217;-82
2023/02/20 07:42:42;;;;;;;7.50;3.03;;;;;;;9.38;64.70;96636.38;5051996;28;20226;-82
2023/02/20 07:45:09;;;;;;;4.30;2.40;;;;;;;9.43;64.28;96637.53;5043903;28;20299;-83
2023/02/20 07:47:36;;;;;;;3.83;2.30;;;;;;;9.46;64.56;96626.97;5038157;28;20201;-82
2023/02/20 07:50:04;;;;;;;3.87;2.20;;;;;;;9.61;64.18;96630.69;5052810;28;20197;-82
2023/02/20 07:52:30;;;;;;;4.93;2.53;;;;;;;9.64;63.34;96627.00;5045053;28;20218;-82
2023/02/20 07:54:57;;;;;;;2.53;2.33;;;;;;;10.35;61.71;96620.16;5031334;28;20561;-82
2023/02/20 07:57:23;;;;;;;2.47;2.17;;;;;;;11.07;59.72;96623.31;5047535;28;20255;-83
2023/02/20 07:59:50;;;;;;;2.70;2.30;;;;;;;11.74;57.45;96612.09;5050734;28;20386;-83
2023/02/20 08:02:16;;;;;;;4.07;2.57;;;;;;;12.03;55.64;96603.97;5034072;28;20638;-82
2023/02/20 08:04:43;;;;;;;3.47;2.37;;;;;;;11.91;55.44;96597.50;5044354;28;20575;-82
2023/02/20 08:07:11;;;;;;;4.53;2.13;;;;;;;12.47;54.79;96602.84;5048209;28;20212;-83
2023/02/20 08:09:37;;;;;;;2.87;2.50;;;;;;;12.94;53.67;96600.31;5047597;28;20193;-82
2023/02/20 08:12:04;;;;;;;4.57;2.67;;;;;;;12.79;54.02;96595.81;5048217;28;20221;-82
2023/02/20 08:14:31;;;;;;;4.20;2.50;;;;;;;12.41;54.39;96593.94;5046837;28;20675;-82
2023/02/20 08:16:57;;;;;;;6.93;2.80;;;;;;;12.20;54.93;96581.53;5049375;28;20682;-82
2023/02/20 08:19:24;;;;;;;5.37;3.90;;;;;;;12.51;54.11;96588.63;5036539;28;20217;-81
2023/02/20 08:21:50;;;;;;;3.77;2.40;;;;;;;12.92;52.04;96581.56;5038429;28;20631;-82
2023/02/20 08:24:18;;;;;;;6.23;2.20;;;;;;;12.99;52.17;96580.75;5029481;28;20206;-82
2023/02/20 08:26:45;;;;;;;6.60;2.30;;;;;;;12.51;52.04;96581.66;5029189;28;20201;-83
2023/02/20 08:29:11;;;;;;;4.70;2.97;;;;;;;12.57;53.16;96583.59;5028002;28;20190;-83
2023/02/20 08:31:38;;;;;;;4.40;2.10;;;;;;;12.40;53.08;96582.81;5029657;28;20214;-82
2023/02/20 08:34:04;;;;;;;4.77;2.30;;;;;;;12.91;51.01;96575.59;5048235;28;20220;-83
2023/02/20 08:36:31;;;;;;;5.13;2.30;;;;;;;13.24;51.32;96580.69;5049429;28;20232;-83
2023/02/20 08:38:58;;;;;;;5.37;2.37;;;;;;;13.33;50.47;96570.13;5044803;28;20478;-82
2023/02/20 08:41:27;;;;;;;3.87;2.37;;;;;;;13.21;50.16;96576.66;5048315;28;20238;-81
2023/02/20 08:43:53;;;;;;;4.70;2.80;;;;;;;13.26;50.36;96576.16;5042626;28;20194;-82
2023/02/20 08:46:20;;;;;;;7.27;3.10;;;;;;;13.52;50.55;96574.06;5038399;28;20204;-83
2023/02/20 08:48:46;;;;;;;4.03;2.37;;;;;;;13.13;50.59;96563.72;5038386;28;20268;-83
2023/02/20 08:51:13;;;;;;;4.67;2.43;;;;;;;12.83;51.15;96562.72;5029344;28;20218;-83
2023/02/20 08:53:40;;;;;;;5.87;2.60;;;;;;;13.36;50.57;96562.03;5047015;28;20201;-83
2023/02/20 08:56:07;;;;;;;2.43;2.20;;;;;;;13.31;49.99;96553.16;5032220;28;20209;-83
2023/02/20 08:58:35;;;;;;;3.20;2.17;;;;;;;13.60;48.96;96548.16;5036170;28;20311;-83
2023/02/20 09:01:01;;;;;;;2.40;2.20;;;;;;;13.74;48.18;96550.00;5047110;28;20236;-83
2023/02/20 09:03:28;;;;;;;4.77;2.10;;;;;;;13.99;48.92;96549.84;5045892;28;20205;-82
2023/02/20 09:05:54;;;;;;;4.40;2.07;;;;;;;14.19;47.79;96553.56;5046420;28;20662;-83
2023/02/20 09:08:21;;;;;;;4.20;2.20;;;;;;;14.39;47.07;96543.50;5048056;28;20197;-82
2023/02/20 09:10:47;;;;;;;2.55;2.33;;;;;;;14.29;46.73;96525.59;5043912;28;20237;-83
2023/02/20 09:13:14;;;;;;;3.25;2.30;;;;;;;14.37;46.64;96535.09;5035359;28;20203;-83
2023/02/20 09:15:42;;;;;;;4.05;2.42;;;;;;;14.64;46.75;96520.75;5027803;28;20202;-84
2023/02/20 09:18:13;;;;;;;3.17;2.10;;;;;;;14.67;45.82;96517.81;5031148;28;20209;-83
2023/02/20 09:20:43;;;;;;;3.65;2.13;;;;;;;14.88;46.06;96517.09;5034632;28;20248;-84
2023/02/20 09:23:10;;;;;;;2.72;2.00;;;;;;;15.05;45.66;96518.50;5030477;28;20205;-83
2023/02/20 09:25:37;;;;;;;4.07;2.15;;;;;;;15.04;45.72;96514.28;5030561;28;20202;-83
2023/02/20 09:28:03;;;;;;;3.50;2.30;;;;;;;14.98;45.79;96508.06;5028201;28;20237;-83
2023/02/20 09:30:30;;;;;;;4.85;2.35;;;;;;;15.03;45.40;96520.47;5035912;28;20197;-83
2023/02/20 09:32:58;;;;;;;4.22;2.63;;;;;;;15.15;46.04;96516.44;5051841;28;20229;-83
2023/02/20 09:35:27;;;;;;;4.60;2.20;;;;;;;15.36;45.39;96513.88;5043612;28;20201;-82
2023/02/20 09:37:54;;;;;;;6.88;3.97;;;;;;;15.57;45.22;96517.53;5040888;28;20210;-83
2023/02/20 09:40:29;;;;;;;3.03;2.10;;;;;;;15.63;44.49;96524.56;5032298;28;20221;-83
2023/02/20 09:43:12;;;;;;;2.95;2.20;;;;;;;15.68;44.76;96530.00;5038661;28;20794;-82
2023/02/20 09:45:41;;;;;;;3.47;2.00;;;;;;;15.62;44.71;96518.56;5051255;28;20205;-83
2023/02/20 09:48:25;;;;;;;3.28;2.20;;;;;;;15.61;44.33;96516.94;5046361;28;20726;-83
2023/02/20 09:50:54;;;;;;;2.75;2.10;;;;;;;15.71;44.67;96503.69;5041476;28;20193;-83
2023/02/20 09:53:27;;;;;;;3.42;2.22;;;;;;;15.81;44.13;96486.78;5039588;28;20657;-84
2023/02/20 09:55:55;;;;;;;2.63;1.95;;;;;;;15.56;43.87;96479.56;5057378;28;20189;-83
2023/02/20 09:58:27;;;;;;;4.53;2.20;;;;;;;15.43;44.25;96464.63;5067269;28;20205;-83
2023/02/20 10:00:59;;;;;;;2.88;2.13;;;;;;;15.34;44.82;96470.94;5071071;28;20248;-83
2023/02/20 10:03:33;;;;;;;3.13;2.05;;;;;;;15.30;44.86;96473.09;5055977;28;20198;-82
2023/02/20 10:06:01;;;;;;;2.95;1.95;;;;;;;15.20;45.08;96470.00;5033963;28;20256;-83
2023/02/20 10:08:28;;;;;;;3.17;2.22;;;;;;;15.36;44.97;96468.97;5035280;28;20197;-83
2023/02/20 10:11:00;;;;;;;2.78;2.20;;;;;;;15.59;44.84;96469.59;5048407;28;20218;-82
2023/02/20 10:13:43;;;;;;;2.45;2.10;;;;;;;15.72;45.08;96459.34;5049176;28;20216;-83
2023/02/20 10:16:22;;;;;;;5.88;2.22;;;;;;;15.93;44.15;96455.94;5049095;28;20202;-83
2023/02/20 10:19:02;;;;;;;3.75;2.08;;;;;;;15.51;44.17;96449.75;5048931;28;20201;-83
2023/02/20 10:21:44;;;;;;;4.82;2.33;;;;;;;15.28;45.18;96453.50;5040464;28;20217;-83
2023/02/20 10:24:23;;;;;;;2.95;1.70;;;;;;;15.02;45.31;96447.03;5029449;28;20221;-83
2023/02/20 10:26:54;;;;;;;4.05;1.90;;;;;;;15.05;45.33;96448.47;5041748;28;20205;-83
2023/02/20 10:29:25;;;;;;;2.60;2.10;;;;;;;15.09;45.40;96449.72;5050986;28;20201;-83
2023/02/20 10:31:55;;;;;;;2.65;2.22;;;;;;;15.13;44.95;96443.19;5044336;28;20225;-83
2023/02/20 10:34:27;;;;;;;1.98;1.88;;;;;;;15.18;44.91;96452.03;5043402;28;20244;-83
2023/02/20 10:37:01;;;;;;;3.35;1.92;;;;;;;15.12;45.72;96441.56;5047066;28;20205;-83
2023/02/20 10:39:30;;;;;;;4.30;2.20;;;;;;;15.20;45.36;96437.06;5029633;28;20248;-83
2023/02/20 10:42:03;;;;;;;3.45;2.00;;;;;;;15.44;45.18;96441.09;5031181;28;20225;-83
2023/02/20 10:44:35;;;;;;;3.08;2.10;;;;;;;15.64;44.98;96437.91;5048804;28;20252;-83
2023/02/20 10:47:08;;;;;;;2.83;1.85;;;;;;;15.37;44.76;96442.03;5032483;28;20206;-84
2023/02/20 10:49:43;;;;;;;3.25;1.83;;;;;;;15.39;45.17;96429.66;5049236;28;20232;-83
2023/02/20 10:52:15;;;;;;;4.28;2.10;;;;;;;15.65;45.15;96431.72;5030725;28;20979;-83
2023/02/20 10:54:47;;;;;;;3.00;2.08;;;;;;;15.87;44.41;96426.31;5033262;28;20189;-83
2023/02/20 10:57:20;;;;;;;2.97;1.88;;;;;;;15.91;43.91;96423.34;5047122;28;20877;-83
2023/02/20 10:59:53;;;;;;;2.88;1.83;;;;;;;16.01;43.75;96423.78;5029301;28;20234;-83
2023/02/20 11:02:24;;;;;;;3.22;2.22;;;;;;;16.17;43.26;96419.09;5040026;28;20229;-83
2023/02/20 11:04:57;;;;;;;2.00;1.70;;;;;;;16.18;43.08;96423.31;5050194;28;20198;-83
2023/02/20 11:07:25;;;;;;;2.35;2.00;;;;;;;16.13;42.51;96417.91;5047131;28;20202;-83
2023/02/20 11:09:51;;;;;;;3.13;1.80;;;;;;;16.18;42.30;96410.31;5040230;28;20628;-83
2023/02/20 11:12:29;;;;;;;2.45;1.90;;;;;;;16.34;42.32;96396.22;5041240;28;20225;-82
2023/02/20 11:14:57;;;;;;;5.60;5.07;;;;;;;16.33;41.64;96394.63;5046970;28;20197;-83
2023/02/20 11:17:27;;;;;;;5.50;5.00;;;;;;;16.29;41.24;96396.00;5047871;28;20189;-83
2023/02/20 11:19:56;;;;;;;3.05;1.80;;;;;;;16.20;41.14;96384.13;5047588;28;20225;-83
2023/02/20 11:22:39;;;;;;;2.10;1.80;;;;;;;16.11;40.91;96385.31;5048352;28;20222;-83
2023/02/20 11:25:16;;;;;;;2.30;1.90;;;;;;;16.07;41.48;96381.47;5034750;28;20202;-83
2023/02/20 11:27:43;;;;;;;2.00;1.80;;;;;;;16.06;41.22;96365.09;5045279;28;20201;-83
2023/02/20 11:30:24;;;;;;;3.55;1.70;;;;;;;16.16;41.21;96373.31;5062086;28;20194;-83
2023/02/20 11:33:01;;;;;;;4.45;2.38;;;;;;;16.27;41.67;96366.81;5040154;28;20249;-82
2023/02/20 11:35:32;;;;;;;1.98;1.55;;;;;;;16.27;40.91;96363.41;5034432;28;20193;-82
2023/02/20 11:38:23;;;;;;;2.22;2.03;;;;;;;16.39;41.09;96370.44;5050204;28;20206;-82
2023/02/20 11:41:03;;;;;;;3.03;2.63;;;;;;;16.52;41.22;96361.91;5048595;28;20217;-82
2023/02/20 11:43:33;;;;;;;8.02;6.72;;;;;;;16.51;41.00;96360.31;5058669;28;20198;-83
2023/02/20 11:46:10;;;;;;;5.03;4.53;;;;;;;16.52;41.16;96359.31;5045129;28;20803;-83
2023/02/20 11:48:37;;;;;;;2.63;1.70;;;;;;;16.50;41.33;96345.72;5054215;28;20205;-82
2023/02/20 11:51:05;;;;;;;3.20;1.80;;;;;;;16.63;40.70;96340.56;5057820;28;20225;-83
2023/02/20 11:53:34;;;;;;;5.60;1.80;;;;;;;16.70;40.43;96332.81;5043609;28;20234;-84
2023/02/20 11:56:10;;;;;;;1.70;1.60;;;;;;;16.57;40.33;96333.50;5044947;28;20874;-84
2023/02/20 11:58:38;;;;;;;1.90;1.60;;;;;;;16.53;41.01;96335.72;5040326;28;20247;-82
2023/02/20 12:01:05;;;;;;;3.00;1.85;;;;;;;16.51;41.19;96332.53;5047072;28;20280;-83
2023/02/20 12:03:34;;;;;;;1.98;1.63;;;;;;;16.59;41.21;96319.31;5051701;28;20198;-84